Time;durP1;ratioP1;P1;durP2;ratioP2;P2;SDS_P1;SDS_P2;PMS_P1;PMS_P2;Temp;Humidity;BMP_temperature;BMP_pressure;BME280_temperature;BME280_humidity;BME280_pressure;Samples;Min_cycle;Max_cycle;Signal;HPM_P1;HPM_P2
2021/09/25 00:01:02;;;;;;;8.33;7.60;;;;;;;13.32;91.16;98820.44;4919992;28;103918;-71
2021/09/25 00:03:32;;;;;;;6.60;6.00;;;;;;;13.40;90.68;98827.78;4917102;28;103263;-71
2021/09/25 00:06:01;;;;;;;7.80;7.10;;;;;;;13.41;90.26;98818.84;4918850;28;103369;-70
2021/09/25 00:08:29;;;;;;;7.00;6.40;;;;;;;13.42;90.09;98823.22;4917134;28;102777;-70
2021/09/25 00:10:58;;;;;;;7.80;7.10;;;;;;;13.40;90.19;98817.16;4918679;28;104009;-71
2021/09/25 00:13:26;;;;;;;8.47;7.63;;;;;;;13.37;90.33;98815.59;4918390;28;103494;-77
2021/09/25 00:15:54;;;;;;;10.43;9.53;;;;;;;13.08;91.70;98817.97;4901989;28;104131;-76
2021/09/25 00:18:23;;;;;;;8.93;7.87;;;;;;;13.18;91.99;98816.28;4919358;28;103088;-69
2021/09/25 00:20:52;;;;;;;8.77;7.97;;;;;;;13.14;92.14;98813.97;4918719;28;102802;-69
2021/09/25 00:23:21;;;;;;;8.20;7.50;;;;;;;13.20;91.46;98811.69;4918914;28;103247;-75
2021/09/25 00:25:49;;;;;;;7.20;6.50;;;;;;;13.29;90.95;98813.59;4918398;28;103280;-76
2021/09/25 00:28:17;;;;;;;8.37;7.57;;;;;;;13.29;90.87;98810.09;4918103;28;102919;-70
2021/09/25 00:30:45;;;;;;;8.13;7.33;;;;;;;13.37;92.22;98818.25;4918900;28;102755;-70
2021/09/25 00:33:14;;;;;;;7.33;6.63;;;;;;;13.45;91.53;98814.97;4917285;28;103345;-69
2021/09/25 00:35:42;;;;;;;6.73;6.13;;;;;;;13.52;91.46;98816.16;4919156;28;103263;-69
2021/09/25 00:38:11;;;;;;;10.50;9.43;;;;;;;13.59;92.56;98807.56;4918781;28;102714;-69
2021/09/25 00:40:40;;;;;;;7.93;7.23;;;;;;;13.56;92.12;98812.31;4919102;28;103649;-76
2021/09/25 00:43:08;;;;;;;11.57;9.13;;;;;;;13.51;93.23;98811.81;4918104;28;103429;-76
2021/09/25 00:45:36;;;;;;;8.07;7.30;;;;;;;13.50;93.33;98812.81;4918101;28;103085;-76
2021/09/25 00:48:05;;;;;;;8.40;7.60;;;;;;;13.52;92.50;98816.16;4933173;28;103104;-75
2021/09/25 00:50:34;;;;;;;10.43;9.43;;;;;;;13.46;92.38;98811.34;4937243;28;102761;-70
2021/09/25 00:53:02;;;;;;;10.27;8.40;;;;;;;13.45;92.45;98820.28;4938892;28;103082;-76
2021/09/25 00:55:32;;;;;;;7.13;6.43;;;;;;;13.49;91.74;98819.06;4940743;28;103291;-76
2021/09/25 00:58:03;;;;;;;12.00;10.83;;;;;;;13.30;92.80;98812.59;4938839;28;102678;-76
2021/09/25 01:00:32;;;;;;;9.93;8.93;;;;;;;13.25;93.83;98814.78;4941413;28;102743;-76
2021/09/25 01:03:01;;;;;;;10.83;9.17;;;;;;;13.34;93.08;98815.84;4936323;28;104479;-77
2021/09/25 01:05:30;;;;;;;10.27;9.27;;;;;;;13.40;93.25;98811.84;4944188;28;103235;-76
2021/09/25 01:07:59;;;;;;;10.30;9.40;;;;;;;13.43;93.37;98814.25;4943334;28;102702;-76
2021/09/25 01:10:28;;;;;;;12.93;11.53;;;;;;;13.40;94.41;98819.81;4924264;28;103929;-75
2021/09/25 01:12:58;;;;;;;12.37;11.17;;;;;;;13.38;95.16;98819.97;4941181;28;103797;-76
2021/09/25 01:15:26;;;;;;;8.60;7.80;;;;;;;13.52;93.64;98821.47;4942040;28;103040;-76
2021/09/25 01:17:54;;;;;;;13.10;11.73;;;;;;;13.26;94.86;98821.78;4923935;28;102856;-76
2021/09/25 01:20:23;;;;;;;10.70;9.60;;;;;;;13.12;97.05;98823.88;4941717;28;102767;-77
2021/09/25 01:22:52;;;;;;;14.00;12.37;;;;;;;12.82;98.67;98819.19;4940303;28;104052;-76
2021/09/25 01:25:20;;;;;;;12.37;11.17;;;;;;;12.89;98.91;98817.72;4940808;28;102949;-76
2021/09/25 01:27:49;;;;;;;10.77;9.70;;;;;;;13.09;96.76;98819.66;4941152;28;102730;-77
2021/09/25 01:30:18;;;;;;;13.60;12.20;;;;;;;12.97;97.89;98810.00;4942064;28;103937;-76
2021/09/25 01:32:48;;;;;;;12.87;11.63;;;;;;;13.03;96.69;98808.66;4942112;28;103315;-77
2021/09/25 01:35:18;;;;;;;10.47;9.47;;;;;;;13.11;96.80;98807.09;4940852;28;103290;-70
2021/09/25 01:37:48;;;;;;;10.97;9.43;;;;;;;13.24;96.33;98801.66;4941695;28;103005;-77
2021/09/25 01:40:19;;;;;;;12.67;11.40;;;;;;;13.18;96.28;98808.31;4944385;28;102815;-76
2021/09/25 01:42:48;;;;;;;14.57;12.20;;;;;;;13.15;96.80;98808.56;4944030;28;104079;-71
2021/09/25 01:45:16;;;;;;;12.57;11.33;;;;;;;13.05;97.30;98807.56;4942208;28;102667;-70
2021/09/25 01:47:45;;;;;;;12.77;11.47;;;;;;;13.10;97.28;98809.91;4941534;28;104429;-71
2021/09/25 01:50:15;;;;;;;10.90;9.77;;;;;;;13.21;96.12;98812.53;4940763;28;102698;-70
2021/09/25 01:52:44;;;;;;;9.33;8.43;;;;;;;13.32;95.31;98809.84;4939539;28;103067;-71
2021/09/25 01:55:12;;;;;;;11.10;10.07;;;;;;;13.39;94.50;98820.81;4922203;28;103023;-70
2021/09/25 01:57:42;;;;;;;10.23;8.30;;;;;;;13.35;94.45;98820.19;4939882;28;102662;-70
2021/09/25 02:00:11;;;;;;;7.60;6.90;;;;;;;13.38;94.17;98824.41;4940905;28;104016;-75
2021/09/25 02:02:40;;;;;;;11.03;9.93;;;;;;;13.39;93.62;98828.75;4935158;28;103370;-77
2021/09/25 02:05:09;;;;;;;11.67;10.53;;;;;;;13.42;93.21;98825.88;4940958;28;103259;-77
2021/09/25 02:07:38;;;;;;;10.57;9.57;;;;;;;13.35;92.66;98836.13;4940986;28;102858;-77
2021/09/25 02:10:07;;;;;;;10.33;9.37;;;;;;;13.39;93.53;98836.72;4941029;28;102766;-76
2021/09/25 02:12:35;;;;;;;9.10;8.20;;;;;;;13.41;92.88;98837.44;4939114;28;102742;-78
2021/09/25 02:15:05;;;;;;;11.50;9.70;;;;;;;13.38;93.32;98835.03;4940967;28;102658;-76
2021/09/25 02:17:34;;;;;;;8.77;7.93;;;;;;;13.39;92.73;98836.72;4940131;28;102703;-76
2021/09/25 02:20:03;;;;;;;9.07;8.27;;;;;;;13.35;92.53;98829.00;4923733;28;102844;-76
2021/09/25 02:22:31;;;;;;;14.33;12.83;;;;;;;12.98;93.76;98827.59;4940590;28;104371;-76
2021/09/25 02:24:59;;;;;;;9.97;8.97;;;;;;;13.06;94.52;98827.81;4921971;28;104312;-77
2021/09/25 02:27:27;;;;;;;9.90;9.00;;;;;;;13.09;94.48;98832.06;4940728;28;103871;-78
2021/09/25 02:29:56;;;;;;;10.10;9.03;;;;;;;13.13;93.86;98831.72;4940424;28;102745;-77
2021/09/25 02:32:25;;;;;;;9.33;8.43;;;;;;;13.13;93.63;98831.72;4940602;28;102980;-77
2021/09/25 02:34:53;;;;;;;9.03;8.17;;;;;;;13.03;94.53;98833.38;4939851;28;103233;-76
2021/09/25 02:37:22;;;;;;;9.43;8.63;;;;;;;13.07;93.79;98832.22;4938598;28;103114;-76
2021/09/25 02:39:50;;;;;;;9.73;8.83;;;;;;;13.09;93.41;98824.13;4940291;28;102744;-78
2021/09/25 02:42:18;;;;;;;8.60;7.80;;;;;;;13.07;93.32;98824.25;4939735;28;103743;-77
2021/09/25 02:44:46;;;;;;;8.97;8.17;;;;;;;13.03;93.64;98817.47;4922158;28;103226;-70
2021/09/25 02:47:15;;;;;;;9.93;8.93;;;;;;;12.99;93.72;98818.69;4937649;28;102697;-76
2021/09/25 02:49:44;;;;;;;11.17;10.07;;;;;;;13.02;93.90;98823.75;4941070;28;103981;-76
2021/09/25 02:52:12;;;;;;;11.90;10.70;;;;;;;12.89;94.29;98823.03;4939299;28;103846;-76
2021/09/25 02:54:40;;;;;;;11.60;10.40;;;;;;;12.89;94.37;98807.13;4939369;28;102947;-70
2021/09/25 02:57:09;;;;;;;10.80;9.73;;;;;;;12.88;94.23;98810.75;4939579;28;102725;-70
2021/09/25 02:59:37;;;;;;;10.03;9.00;;;;;;;12.91;94.09;98804.34;4936311;28;102736;-70
2021/09/25 03:02:05;;;;;;;10.93;9.83;;;;;;;12.67;95.73;98802.69;4937289;28;103263;-70
2021/09/25 03:04:34;;;;;;;9.50;8.57;;;;;;;12.82;94.61;98797.97;4937576;28;103092;-70
2021/09/25 03:07:04;;;;;;;8.77;7.93;;;;;;;12.82;94.49;98800.63;4921164;28;102995;-70
2021/09/25 03:09:32;;;;;;;11.30;10.20;;;;;;;12.80;93.75;98802.53;4921544;28;104249;-70
2021/09/25 03:12:00;;;;;;;7.63;6.93;;;;;;;12.79;94.04;98800.88;4938707;28;103768;-76
2021/09/25 03:14:28;;;;;;;8.87;7.97;;;;;;;12.55;95.81;98805.44;4939744;28;103211;-77
2021/09/25 03:16:56;;;;;;;8.47;7.63;;;;;;;12.74;94.34;98803.88;4936550;28;102640;-77
2021/09/25 03:19:25;;;;;;;10.03;8.97;;;;;;;12.71;94.28;98800.66;4940629;28;104376;-77
2021/09/25 03:21:53;;;;;;;10.43;9.43;;;;;;;12.70;94.09;98801.59;4939608;28;103287;-78
2021/09/25 03:24:22;;;;;;;8.60;7.73;;;;;;;12.60;95.13;98798.00;4938916;28;103482;-78
2021/09/25 03:26:51;;;;;;;9.13;8.27;;;;;;;12.60;94.32;98806.78;4938370;28;104477;-77
2021/09/25 03:29:19;;;;;;;8.27;7.47;;;;;;;12.56;95.46;98793.91;4943416;28;103997;-76
2021/09/25 03:31:49;;;;;;;8.20;7.40;;;;;;;12.70;94.00;98797.16;4927691;28;103180;-76
2021/09/25 03:34:17;;;;;;;7.20;6.50;;;;;;;12.75;93.02;98792.31;4941665;28;103250;-76
2021/09/25 03:36:45;;;;;;;7.13;6.47;;;;;;;12.78;92.85;98785.91;4940393;28;102775;-77
2021/09/25 03:39:13;;;;;;;7.63;6.93;;;;;;;12.80;92.73;98791.94;4940890;28;104136;-77
2021/09/25 03:41:44;;;;;;;8.77;7.77;;;;;;;12.84;92.29;98789.88;4938340;28;103280;-78
2021/09/25 03:44:12;;;;;;;10.87;8.37;;;;;;;12.56;93.12;98794.75;4939509;28;103178;-78
2021/09/25 03:46:40;;;;;;;10.57;9.57;;;;;;;12.39;95.12;98791.72;4934788;28;103439;-72
2021/09/25 03:49:08;;;;;;;12.90;10.27;;;;;;;12.34;94.32;98788.59;4938566;28;102700;-73
2021/09/25 03:51:37;;;;;;;10.83;9.13;;;;;;;12.23;95.42;98793.88;4932818;28;103387;-73
2021/09/25 03:54:05;;;;;;;9.17;8.30;;;;;;;12.42;94.63;98792.34;4931720;28;104264;-73
2021/09/25 03:56:33;;;;;;;8.47;7.67;;;;;;;12.53;94.06;98794.13;4920411;28;102720;-73
2021/09/25 03:59:03;;;;;;;7.87;7.17;;;;;;;12.53;93.16;98799.44;4938652;28;102672;-79
2021/09/25 04:01:31;;;;;;;7.00;6.30;;;;;;;12.55;93.12;98798.34;4937099;28;103962;-75
2021/09/25 04:04:00;;;;;;;6.80;6.20;;;;;;;12.57;92.67;98801.75;4938358;28;103181;-76
2021/09/25 04:06:29;;;;;;;7.13;6.43;;;;;;;12.55;92.52;98798.34;4939626;28;102651;-75
2021/09/25 04:08:57;;;;;;;7.43;6.73;;;;;;;12.44;93.20;98794.84;4940458;28;102666;-75
2021/09/25 04:11:25;;;;;;;7.20;6.50;;;;;;;12.48;93.21;98796.31;4938279;28;103294;-76
2021/09/25 04:13:53;;;;;;;9.80;8.90;;;;;;;12.39;92.66;98791.72;4920819;28;103234;-76
2021/09/25 04:16:26;;;;;;;9.83;8.93;;;;;;;12.15;93.47;98797.94;4920219;28;102685;-75
2021/09/25 04:18:54;;;;;;;9.47;8.60;;;;;;;11.93;97.22;98792.63;4939474;28;102735;-76
2021/09/25 04:21:23;;;;;;;7.40;6.70;;;;;;;12.18;95.76;98800.38;4939264;28;103412;-77
2021/09/25 04:23:51;;;;;;;7.90;6.47;;;;;;;12.27;93.68;98798.00;4938626;28;102610;-77
2021/09/25 04:26:20;;;;;;;7.23;6.57;;;;;;;12.32;93.38;98801.13;4937740;28;102640;-76
2021/09/25 04:28:48;;;;;;;6.63;6.03;;;;;;;12.33;92.94;98803.63;4940957;28;102906;-77
2021/09/25 04:31:16;;;;;;;6.77;5.57;;;;;;;12.30;93.65;98792.44;4941953;28;103346;-67
2021/09/25 04:33:46;;;;;;;6.83;6.13;;;;;;;12.31;93.34;98789.69;4939893;28;103277;-67
2021/09/25 04:36:14;;;;;;;7.80;7.10;;;;;;;12.40;92.56;98794.28;4940953;28;103019;-68
2021/09/25 04:38:42;;;;;;;6.50;5.90;;;;;;;12.42;91.74;98788.84;4938632;28;104534;-68
2021/09/25 04:41:10;;;;;;;8.90;8.00;;;;;;;12.26;92.11;98796.28;4942666;28;104217;-81
2021/09/25 04:43:39;;;;;;;6.57;5.97;;;;;;;12.30;92.52;98797.72;4948580;28;103302;-68
2021/09/25 04:46:07;;;;;;;6.90;6.30;;;;;;;12.34;92.18;98796.53;4943626;28;102779;-82
2021/09/25 04:48:35;;;;;;;8.77;7.97;;;;;;;12.14;92.94;98803.38;4952184;28;102743;-83
2021/09/25 04:51:05;;;;;;;6.83;6.23;;;;;;;12.24;93.27;98811.47;4953692;28;103214;-81
2021/09/25 04:53:33;;;;;;;6.50;5.90;;;;;;;12.32;92.14;98806.41;4952312;28;103040;-81
2021/09/25 04:56:01;;;;;;;9.53;8.53;;;;;;;12.21;91.77;98812.53;4950830;28;102952;-69
2021/09/25 04:58:29;;;;;;;6.93;6.20;;;;;;;12.21;92.68;98815.16;4940034;28;102754;-68
2021/09/25 05:00:58;;;;;;;10.33;9.40;;;;;;;12.00;93.99;98817.69;4940551;28;103793;-68
2021/09/25 05:03:26;;;;;;;10.23;8.90;;;;;;;11.86;94.59;98815.22;4941833;28;102983;-82
2021/09/25 05:05:55;;;;;;;8.10;7.13;;;;;;;11.90;94.78;98818.50;4939316;28;102893;-68
2021/09/25 05:08:24;;;;;;;8.43;7.63;;;;;;;12.02;93.56;98818.41;4922559;28;102815;-68
2021/09/25 05:10:52;;;;;;;6.87;5.97;;;;;;;12.06;93.49;98817.22;4939651;28;103316;-68
2021/09/25 05:13:21;;;;;;;7.40;6.70;;;;;;;11.98;93.87;98818.75;4940846;28;103236;-81
2021/09/25 05:15:49;;;;;;;6.13;5.53;;;;;;;12.07;93.29;98813.59;4963306;28;102611;-81
2021/09/25 05:18:17;;;;;;;8.37;7.40;;;;;;;12.06;93.10;98811.91;4963411;28;104123;-81
2021/09/25 05:20:45;;;;;;;5.87;5.37;;;;;;;12.04;93.17;98824.41;4962173;28;102566;-81
2021/09/25 05:23:14;;;;;;;5.97;5.37;;;;;;;12.14;92.18;98819.28;4964204;28;103183;-81
2021/09/25 05:25:43;;;;;;;7.97;7.27;;;;;;;12.09;92.28;98811.69;4960394;28;102669;-81
2021/09/25 05:28:12;;;;;;;6.60;6.00;;;;;;;11.84;94.47;98809.22;4946078;28;103729;-80
2021/09/25 05:30:40;;;;;;;8.97;8.07;;;;;;;11.94;94.09;98814.66;4962638;28;103254;-80
2021/09/25 05:33:09;;;;;;;6.83;6.17;;;;;;;12.02;93.81;98813.09;4945889;28;103274;-67
2021/09/25 05:35:37;;;;;;;8.77;7.87;;;;;;;12.12;92.74;98815.91;4940744;28;102682;-67
2021/09/25 05:38:05;;;;;;;9.50;8.50;;;;;;;12.02;93.70;98815.75;4939682;28;103988;-67
2021/09/25 05:40:34;;;;;;;11.17;8.50;;;;;;;12.04;93.10;98816.47;4939626;28;103020;-68
2021/09/25 05:43:04;;;;;;;9.40;8.50;;;;;;;12.08;92.92;98819.72;4943940;28;102976;-79
2021/09/25 05:45:32;;;;;;;8.57;7.80;;;;;;;12.18;92.63;98813.59;4962821;28;102781;-80
2021/09/25 05:48:00;;;;;;;10.40;9.40;;;;;;;11.86;94.02;98804.66;4941325;28;103143;-68
2021/09/25 05:50:29;;;;;;;11.13;9.27;;;;;;;11.87;94.75;98806.34;4940071;28;103275;-81
2021/09/25 05:52:57;;;;;;;9.20;8.30;;;;;;;12.10;94.07;98802.75;4962528;28;102874;-68
2021/09/25 05:55:25;;;;;;;9.23;8.30;;;;;;;12.24;92.96;98806.19;4937913;28;102755;-67
2021/09/25 05:57:58;;;;;;;9.30;8.50;;;;;;;12.20;93.31;98803.75;4948632;28;104061;-80
2021/09/25 06:00:28;;;;;;;7.70;6.90;;;;;;;12.35;92.44;98804.34;4956583;28;102722;-80
2021/09/25 06:02:57;;;;;;;10.77;9.07;;;;;;;12.23;93.75;98817.72;4954064;28;103243;-80
2021/09/25 06:05:26;;;;;;;9.90;8.87;;;;;;;12.38;92.62;98811.25;4956844;28;102671;-81
2021/09/25 06:07:54;;;;;;;8.90;8.00;;;;;;;12.35;93.25;98806.19;4955849;28;102597;-80
2021/09/25 06:10:23;;;;;;;9.20;7.70;;;;;;;12.51;92.58;98806.66;4946823;28;103138;-69
2021/09/25 06:12:51;;;;;;;11.00;8.53;;;;;;;12.70;90.83;98807.75;4939973;28;103699;-67
2021/09/25 06:15:20;;;;;;;8.13;6.90;;;;;;;12.86;90.14;98812.66;4921146;28;102703;-80
2021/09/25 06:17:49;;;;;;;11.87;9.30;;;;;;;12.78;89.71;98825.69;4942119;28;103982;-80
2021/09/25 06:20:18;;;;;;;11.93;9.40;;;;;;;12.72;90.59;98816.41;4923694;28;103549;-80
2021/09/25 06:22:46;;;;;;;9.40;8.50;;;;;;;12.76;90.94;98817.03;4936033;28;103277;-67
2021/09/25 06:25:14;;;;;;;11.70;9.27;;;;;;;12.67;91.53;98821.25;4931876;28;102672;-67
2021/09/25 06:27:43;;;;;;;10.40;9.40;;;;;;;12.65;92.37;98809.06;4932151;28;103862;-67
2021/09/25 06:30:11;;;;;;;10.07;9.07;;;;;;;12.68;92.34;98809.69;4935469;28;103308;-82
2021/09/25 06:32:39;;;;;;;11.47;10.27;;;;;;;12.56;92.64;98804.50;4930846;28;103301;-80
2021/09/25 06:35:11;;;;;;;11.33;10.20;;;;;;;12.64;93.00;98810.03;4935326;28;102751;-68
2021/09/25 06:37:39;;;;;;;13.53;9.77;;;;;;;12.75;92.05;98821.47;4934189;28;103219;-81
2021/09/25 06:40:10;;;;;;;11.27;10.00;;;;;;;12.74;92.45;98813.66;4941379;28;103301;-82
2021/09/25 06:42:39;;;;;;;12.00;10.00;;;;;;;12.91;91.80;98815.81;4941959;28;103143;-82
2021/09/25 06:45:08;;;;;;;11.37;10.07;;;;;;;13.16;90.31;98820.88;4919692;28;102720;-82
2021/09/25 06:47:36;;;;;;;11.03;9.93;;;;;;;13.38;89.50;98813.81;4937989;28;102802;-82
2021/09/25 06:50:06;;;;;;;8.87;8.03;;;;;;;13.29;89.86;98821.56;4919028;28;103616;-81
2021/09/25 06:52:35;;;;;;;14.73;10.13;;;;;;;13.45;89.00;98821.13;4914020;28;103267;-79
2021/09/25 06:55:04;;;;;;;10.00;8.43;;;;;;;13.63;88.50;98818.78;4934346;28;102772;-68
2021/09/25 06:57:32;;;;;;;9.70;8.70;;;;;;;13.90;87.47;98827.09;4907613;28;102830;-68
2021/09/25 07:00:01;;;;;;;11.07;9.83;;;;;;;13.73;87.29;98831.16;4921734;28;103325;-69
2021/09/25 07:02:29;;;;;;;9.43;8.53;;;;;;;13.91;86.95;98818.16;4935138;28;103158;-83
2021/09/25 07:04:58;;;;;;;12.37;9.43;;;;;;;14.07;86.26;98823.00;4928255;28;103182;-68
2021/09/25 07:07:26;;;;;;;9.57;8.67;;;;;;;14.31;84.85;98824.44;4921453;28;103100;-67
2021/09/25 07:09:56;;;;;;;10.30;9.20;;;;;;;14.56;83.84;98817.03;4924064;28;103327;-67
2021/09/25 07:12:25;;;;;;;13.50;10.10;;;;;;;14.58;83.65;98817.75;4923519;28;102999;-67
2021/09/25 07:14:53;;;;;;;10.60;9.50;;;;;;;14.59;82.81;98822.94;4925894;28;102837;-68
2021/09/25 07:17:21;;;;;;;9.47;7.63;;;;;;;15.06;81.44;98813.44;4923544;28;104208;-67
2021/09/25 07:19:50;;;;;;;13.43;9.27;;;;;;;15.18;80.96;98822.16;4923772;28;103068;-67
2021/09/25 07:22:18;;;;;;;7.90;7.10;;;;;;;15.52;79.90;98824.34;4911998;28;103239;-68
2021/09/25 07:24:46;;;;;;;8.70;7.83;;;;;;;15.61;78.67;98823.50;4921001;28;102798;-68
2021/09/25 07:27:16;;;;;;;8.93;8.03;;;;;;;16.02;77.25;98834.88;4925151;28;102716;-68
2021/09/25 07:29:44;;;;;;;9.03;8.20;;;;;;;16.21;77.09;98830.38;4909080;28;103283;-67
2021/09/25 07:32:12;;;;;;;8.33;7.07;;;;;;;16.52;75.62;98828.31;4934443;28;103462;-83
2021/09/25 07:34:40;;;;;;;8.70;7.87;;;;;;;16.53;74.86;98829.16;4927394;28;104460;-84
2021/09/25 07:37:09;;;;;;;9.03;7.97;;;;;;;16.74;74.00;98833.34;4908242;28;102807;-84
2021/09/25 07:39:38;;;;;;;8.30;7.20;;;;;;;17.32;72.10;98833.03;4913632;28;103287;-83
2021/09/25 07:42:07;;;;;;;8.20;7.37;;;;;;;17.50;70.82;98831.25;4925154;28;103013;-67
2021/09/25 07:44:37;;;;;;;7.47;6.67;;;;;;;17.74;71.50;98834.19;4926255;28;102818;-84
2021/09/25 07:47:05;;;;;;;9.97;7.97;;;;;;;17.98;70.74;98824.72;4921440;28;104178;-85
2021/09/25 07:49:34;;;;;;;7.00;6.40;;;;;;;18.54;69.41;98830.50;4928836;28;103272;-82
2021/09/25 07:52:02;;;;;;;8.83;7.13;;;;;;;18.70;67.44;98840.47;4920865;28;103024;-68
2021/09/25 07:54:30;;;;;;;7.57;6.88;;;;;;;18.62;66.53;98840.41;4927707;28;102814;-79
2021/09/25 07:56:59;;;;;;;8.97;6.87;;;;;;;18.39;67.31;98845.41;4927026;28;103906;-71
2021/09/25 07:59:27;;;;;;;8.95;6.97;;;;;;;18.74;66.98;98837.31;4926626;28;104151;-78
2021/09/25 08:01:56;;;;;;;6.35;5.38;;;;;;;19.65;65.81;98833.00;4929062;28;102891;-78
2021/09/25 08:04:25;;;;;;;7.45;6.45;;;;;;;19.89;63.92;98822.31;4930729;28;102737;-68
2021/09/25 08:06:53;;;;;;;12.25;6.95;;;;;;;19.83;64.10;98838.22;4929672;28;102900;-68
2021/09/25 08:09:23;;;;;;;7.07;6.38;;;;;;;20.03;65.00;98828.84;4929335;28;103385;-68
2021/09/25 08:11:52;;;;;;;6.95;6.20;;;;;;;20.33;63.60;98830.88;4926978;28;103318;-68
2021/09/25 08:14:20;;;;;;;7.22;6.55;;;;;;;20.73;63.91;98828.13;4929689;28;102904;-68
2021/09/25 08:16:49;;;;;;;9.02;6.90;;;;;;;20.82;61.33;98823.59;4929705;28;103784;-68
2021/09/25 08:19:19;;;;;;;6.82;6.22;;;;;;;20.94;61.55;98819.50;4921096;28;103334;-69
2021/09/25 08:21:48;;;;;;;7.80;7.00;;;;;;;20.85;61.55;98820.56;4925096;28;103238;-78
2021/09/25 08:24:16;;;;;;;8.80;7.32;;;;;;;20.95;60.40;98823.03;4933066;28;103833;-70
2021/09/25 08:26:44;;;;;;;6.95;6.25;;;;;;;21.19;61.43;98812.22;4938262;28;104290;-70
2021/09/25 08:29:15;;;;;;;11.00;6.88;;;;;;;21.02;61.09;98822.19;4939206;28;103397;-69
2021/09/25 08:31:44;;;;;;;6.97;6.28;;;;;;;20.96;59.52;98817.50;4937143;28;103224;-68
2021/09/25 08:34:13;;;;;;;6.80;6.20;;;;;;;21.26;58.85;98815.88;4932440;28;102753;-69
2021/09/25 08:36:43;;;;;;;6.35;5.75;;;;;;;21.50;60.27;98817.59;4929850;28;102731;-78
2021/09/25 08:39:11;;;;;;;6.22;5.15;;;;;;;22.47;56.68;98815.84;4926222;28;103262;-75
2021/09/25 08:41:40;;;;;;;5.93;5.43;;;;;;;21.92;58.30;98818.03;4927650;28;102660;-76
2021/09/25 08:44:09;;;;;;;6.72;5.15;;;;;;;22.59;56.29;98807.31;4927475;28;102996;-75
2021/09/25 08:46:37;;;;;;;5.85;5.22;;;;;;;23.10;54.53;98806.44;4928258;28;102765;-76
2021/09/25 08:49:07;;;;;;;6.82;6.00;;;;;;;23.05;56.19;98819.59;4929232;28;103187;-75
2021/09/25 08:51:36;;;;;;;5.90;4.90;;;;;;;23.17;55.69;98807.34;4930159;28;103157;-75
2021/09/25 08:54:06;;;;;;;6.93;6.22;;;;;;;23.32;54.97;98812.72;4930442;28;102714;-69
2021/09/25 08:56:35;;;;;;;7.60;6.28;;;;;;;23.03;55.33;98800.13;4912513;28;103194;-69
2021/09/25 08:59:05;;;;;;;7.57;5.72;;;;;;;23.30;54.75;98802.09;4930622;28;104147;-68
2021/09/25 09:01:34;;;;;;;5.40;5.00;;;;;;;23.66;54.20;98802.97;4927493;28;103400;-68
2021/09/25 09:04:05;;;;;;;6.30;5.57;;;;;;;23.83;52.84;98800.06;4931629;28;102761;-68
2021/09/25 09:06:36;;;;;;;6.50;6.00;;;;;;;23.14;55.21;98802.31;4929476;28;103012;-77
2021/09/25 09:09:07;;;;;;;8.38;6.53;;;;;;;23.23;54.70;98794.97;4928785;28;103294;-77
2021/09/25 09:11:42;;;;;;;6.63;5.65;;;;;;;23.81;53.59;98793.97;4926526;28;103177;-78
2021/09/25 09:14:14;;;;;;;6.15;5.65;;;;;;;23.67;54.00;98793.03;4931626;28;102863;-76
2021/09/25 09:16:43;;;;;;;5.57;4.68;;;;;;;24.30;53.60;98784.09;4933530;28;102896;-77
2021/09/25 09:19:20;;;;;;;6.45;5.80;;;;;;;23.78;53.46;98794.38;4933633;28;103991;-77
2021/09/25 09:21:50;;;;;;;6.53;5.88;;;;;;;23.81;53.40;98788.59;4933424;28;103311;-78
2021/09/25 09:24:20;;;;;;;4.90;4.50;;;;;;;24.19;52.95;98784.63;4931257;28;102813;-68
2021/09/25 09:26:48;;;;;;;4.60;4.18;;;;;;;24.11;54.11;98790.19;4931638;28;103034;-68
2021/09/25 09:29:18;;;;;;;5.32;4.93;;;;;;;24.41;52.93;98788.97;4914252;28;104492;-75
2021/09/25 09:31:46;;;;;;;6.35;4.55;;;;;;;24.35;53.29;98786.19;4932903;28;103171;-75
2021/09/25 09:34:16;;;;;;;6.90;4.65;;;;;;;24.21;51.82;98786.09;4933325;28;103091;-75
2021/09/25 09:36:44;;;;;;;7.72;5.50;;;;;;;24.00;53.51;98783.38;4932615;28;103113;-68
2021/09/25 09:39:15;;;;;;;4.85;4.28;;;;;;;24.07;53.11;98784.28;4930192;28;103384;-69
2021/09/25 09:41:47;;;;;;;5.65;4.72;;;;;;;24.12;52.18;98791.81;4916390;28;103318;-69
2021/09/25 09:44:17;;;;;;;6.72;5.60;;;;;;;24.72;52.10;98777.75;4938465;28;102760;-69
2021/09/25 09:46:47;;;;;;;6.65;5.07;;;;;;;24.37;52.67;98782.28;4923249;28;104284;-68
2021/09/25 09:49:18;;;;;;;4.43;4.05;;;;;;;24.74;50.32;98781.06;4941785;28;103334;-68
2021/09/25 09:51:48;;;;;;;6.47;4.85;;;;;;;24.39;50.85;98782.09;4934898;28;104151;-68
2021/09/25 09:54:23;;;;;;;5.45;4.63;;;;;;;24.58;51.31;98776.84;4939120;28;102704;-68
2021/09/25 09:56:54;;;;;;;5.25;4.50;;;;;;;24.08;50.51;98774.34;4932387;28;102896;-68
2021/09/25 09:59:23;;;;;;;5.07;4.57;;;;;;;24.02;50.22;98767.84;4930030;28;103393;-68
2021/09/25 10:01:52;;;;;;;5.30;4.88;;;;;;;24.49;50.92;98767.19;4931029;28;103576;-74
2021/09/25 10:04:21;;;;;;;4.80;4.20;;;;;;;24.52;49.06;98768.69;4931871;28;102774;-68
2021/09/25 10:06:52;;;;;;;4.68;4.07;;;;;;;24.62;49.56;98751.06;4931385;28;103802;-68
2021/09/25 10:09:22;;;;;;;4.53;4.05;;;;;;;25.29;49.82;98755.81;4930413;28;104801;-68
2021/09/25 10:11:54;;;;;;;4.78;4.20;;;;;;;25.41;49.91;98751.47;4932491;28;103336;-68
2021/09/25 10:14:24;;;;;;;5.18;4.60;;;;;;;25.23;49.73;98748.50;4932438;28;102816;-68
2021/09/25 10:16:54;;;;;;;4.72;4.32;;;;;;;25.15;50.11;98745.97;4931573;28;102876;-68
2021/09/25 10:19:26;;;;;;;5.00;3.80;;;;;;;24.98;50.71;98744.66;4931369;28;104060;-69
2021/09/25 10:21:57;;;;;;;5.10;4.60;;;;;;;25.40;49.64;98749.81;4932767;28;103283;-69
2021/09/25 10:24:27;;;;;;;5.38;4.93;;;;;;;25.37;48.96;98750.22;4930043;28;102780;-69
2021/09/25 10:26:59;;;;;;;5.57;4.90;;;;;;;25.35;48.65;98744.16;4946156;28;104054;-69
2021/09/25 10:29:28;;;;;;;4.75;4.13;;;;;;;25.42;48.16;98741.47;4931749;28;103063;-69
2021/09/25 10:32:24;;;;;;;5.05;4.55;;;;;;;25.57;48.52;98740.28;4932098;28;103303;-69
2021/09/25 10:35:03;;;;;;;4.75;4.35;;;;;;;25.23;46.04;98735.00;4928757;28;103313;-74
2021/09/25 10:37:35;;;;;;;6.00;3.60;;;;;;;25.05;47.37;98734.69;4932132;28;102772;-73
2021/09/25 10:40:19;;;;;;;4.50;4.10;;;;;;;25.75;46.51;98739.69;4931633;28;104222;-74
2021/09/25 10:42:52;;;;;;;4.10;3.80;;;;;;;26.00;46.29;98729.09;4932630;28;103231;-73
2021/09/25 10:45:25;;;;;;;5.75;5.00;;;;;;;25.91;45.77;98729.31;4930773;28;103093;-69
2021/09/25 10:48:09;;;;;;;4.63;4.22;;;;;;;25.12;47.21;98736.38;4931705;28;102749;-69
2021/09/25 10:50:39;;;;;;;4.50;4.10;;;;;;;25.36;47.37;98729.59;4929886;28;104267;-70
2021/09/25 10:53:14;;;;;;;6.82;4.50;;;;;;;25.81;46.41;98723.47;4931623;28;103258;-69
2021/09/25 10:55:45;;;;;;;4.18;3.88;;;;;;;25.91;46.83;98718.47;4930703;28;102797;-70
2021/09/25 10:58:33;;;;;;;4.18;3.67;;;;;;;26.37;46.49;98718.50;4931000;28;104117;-70
2021/09/25 11:01:07;;;;;;;3.50;3.30;;;;;;;26.11;47.26;98715.75;4931411;28;103306;-69
2021/09/25 11:04:08;;;;;;;4.57;3.95;;;;;;;26.67;46.31;98704.44;4932483;28;103195;-69
2021/09/25 11:06:58;;;;;;;4.22;3.88;;;;;;;26.69;46.46;98707.78;4920804;28;103786;-68
2021/09/25 11:09:32;;;;;;;4.10;3.67;;;;;;;27.21;45.83;98701.34;4925800;28;102799;-73
2021/09/25 11:12:08;;;;;;;4.20;3.90;;;;;;;27.05;46.35;98697.25;4912978;28;103246;-75
2021/09/25 11:14:44;;;;;;;4.03;3.72;;;;;;;26.94;45.99;98701.47;4932052;28;103275;-74
2021/09/25 11:17:27;;;;;;;4.38;4.07;;;;;;;26.56;45.92;98703.22;4932194;28;102755;-74
2021/09/25 11:19:58;;;;;;;5.15;4.65;;;;;;;26.66;46.18;98702.78;4930784;28;102914;-74
2021/09/25 11:22:31;;;;;;;4.70;4.30;;;;;;;26.59;46.85;98707.38;4928050;28;106051;-74
2021/09/25 11:25:06;;;;;;;5.07;4.70;;;;;;;26.65;46.24;98701.97;4933779;28;103209;-74
2021/09/25 11:27:36;;;;;;;5.30;4.50;;;;;;;26.45;47.06;98706.59;4932144;28;102636;-74
2021/09/25 11:30:14;;;;;;;6.68;5.18;;;;;;;25.34;49.26;98708.19;4931105;28;102807;-74
2021/09/25 11:32:46;;;;;;;4.90;4.50;;;;;;;25.56;49.25;98706.19;4931600;28;104053;-73